Time;durP1;ratioP1;P1;durP2;ratioP2;P2;SDS_P1;SDS_P2;PMS_P1;PMS_P2;Temp;Humidity;BMP_temperature;BMP_pressure;BME280_temperature;BME280_humidity;BME280_pressure;Samples;Min_cycle;Max_cycle;Signal;HPM_P1;HPM_P2
2023/04/30 00:00:44;;;;;;;;;;;;;;;13.80;45.78;101006.59;4953665;28;98228;-77
2023/04/30 00:03:10;;;;;;;;;;;;;;;13.79;45.75;101004.97;4941843;28;97999;-72
2023/04/30 00:05:37;;;;;;;;;;;;;;;13.76;45.66;101009.06;4951600;28;98550;-77
2023/04/30 00:08:04;;;;;;;;;;;;;;;13.75;45.78;101010.13;4924713;28;97960;-77
2023/04/30 00:10:31;;;;;;;;;;;;;;;13.73;45.73;101004.19;4924298;28;98168;-72
2023/04/30 00:12:57;;;;;;;;;;;;;;;13.70;45.51;101002.81;4939086;28;98442;-72
2023/04/30 00:15:25;;;;;;;;;;;;;;;13.68;45.78;101005.00;4939364;28;98291;-77
2023/04/30 00:17:52;;;;;;;;;;;;;;;13.67;45.67;101011.50;4953340;28;98507;-72
2023/04/30 00:20:19;;;;;;;;;;;;;;;13.66;45.61;101015.28;4919392;28;98110;-77
2023/04/30 00:22:48;;;;;;;;;;;;;;;13.62;45.64;101016.94;4941000;28;98074;-72
2023/04/30 00:25:16;;;;;;;;;;;;;;;13.61;45.63;101022.63;4940450;28;98211;-78
2023/04/30 00:27:43;;;;;;;;;;;;;;;13.58;45.38;101017.75;4924483;28;100150;-77
2023/04/30 00:30:10;;;;;;;;;;;;;;;13.56;45.43;101017.19;4942014;28;98744;-77
2023/04/30 00:32:36;;;;;;;;;;;;;;;13.52;45.45;101019.66;4941127;28;98005;-78
2023/04/30 00:35:03;;;;;;;;;;;;;;;13.50;45.84;101014.50;4923388;28;98276;-72
2023/04/30 00:37:30;;;;;;;;;;;;;;;13.48;45.77;101022.09;4941983;28;98348;-77
2023/04/30 00:39:58;;;;;;;;;;;;;;;13.46;45.51;101020.75;4938305;28;100080;-77
2023/04/30 00:42:24;;;;;;;;;;;;;;;13.43;45.73;101027.50;4941074;28;98098;-77
2023/04/30 00:44:51;;;;;;;;;;;;;;;13.41;45.49;101026.19;4951782;28;98167;-77
2023/04/30 00:47:18;;;;;;;;;;;;;;;13.39;45.53;101023.72;4917040;28;98221;-77
2023/04/30 00:49:44;;;;;;;;;;;;;;;13.36;45.56;101023.47;4954475;28;98158;-72
2023/04/30 00:52:11;;;;;;;;;;;;;;;13.35;45.80;101035.38;4935020;28;98143;-72
2023/04/30 00:54:37;;;;;;;;;;;;;;;13.33;45.56;101034.84;4952980;28;99338;-76
2023/04/30 00:57:04;;;;;;;;;;;;;;;13.30;45.76;101038.91;4927470;28;100365;-78
2023/04/30 00:59:31;;;;;;;;;;;;;;;13.27;45.55;101044.84;4936288;28;98011;-78
2023/04/30 01:01:58;;;;;;;;;;;;;;;13.26;45.72;101054.06;4924299;28;97929;-78
2023/04/30 01:04:24;;;;;;;;;;;;;;;13.23;45.60;101052.72;4941849;28;97952;-73
2023/04/30 01:06:50;;;;;;;;;;;;;;;13.21;45.78;101054.84;4938203;28;98177;-77
2023/04/30 01:09:18;;;;;;;;;;;;;;;13.20;45.55;101061.34;4951973;28;99662;-78
2023/04/30 01:12:09;;;;;;;;;;;;;;;13.18;45.56;101065.41;4925959;28;97950;-78
2023/04/30 01:14:42;;;;;;;;;;;;;;;13.16;45.70;101070.25;4951614;28;97943;-72
2023/04/30 01:17:14;;;;;;;;;;;;;;;13.13;45.75;101068.94;4933849;28;98057;-72
2023/04/30 01:19:42;;;;;;;;;;;;;;;13.11;45.76;101079.19;4941495;28;100656;-78
2023/04/30 01:22:24;;;;;;;;;;;;;;;13.09;45.44;101075.97;4921892;28;97998;-73
2023/04/30 01:25:06;;;;;;;;;;;;;;;13.07;45.58;101078.13;4951045;28;98140;-78
2023/04/30 01:28:10;;;;;;;;;;;;;;;13.05;45.63;101083.00;4937325;28;98114;-72
2023/04/30 01:30:37;;;;;;;;;;;;;;;13.03;45.67;101082.44;4952022;28;98014;-72
2023/04/30 01:33:03;;;;;;;;;;;;;;;12.99;45.71;101090.28;4942097;28;98237;-72
2023/04/30 01:35:53;;;;;;;;;;;;;;;12.98;45.86;101088.66;4937389;28;98017;-78
2023/04/30 01:38:53;;;;;;;;;;;;;;;12.96;45.80;101088.09;4954762;28;98215;-78
2023/04/30 01:41:25;;;;;;;;;;;;;;;12.93;45.71;101087.81;4948413;28;98170;-72
2023/04/30 01:44:05;;;;;;;;;;;;;;;12.91;45.54;101103.53;4937759;28;98246;-72
2023/04/30 01:46:35;;;;;;;;;;;;;;;12.90;45.87;101101.91;4918601;28;100067;-78
2023/04/30 01:49:24;;;;;;;;;;;;;;;12.88;45.77;101104.88;4940203;28;99610;-72
2023/04/30 01:51:54;;;;;;;;;;;;;;;12.86;45.59;101106.22;4942742;28;98025;-78
2023/04/30 01:54:56;;;;;;;;;;;;;;;12.83;45.67;101110.28;4940346;28;98182;-72
2023/04/30 01:57:31;;;;;;;;;;;;;;;12.81;45.66;101107.03;4935702;28;98197;-77
2023/04/30 01:59:57;;;;;;;;;;;;;;;12.79;45.64;101109.19;4919601;28;110741;-72
2023/04/30 02:02:23;;;;;;;;;;;;;;;12.77;45.86;101108.63;4953720;28;98082;-72
2023/04/30 02:04:49;;;;;;;;;;;;;;;12.75;45.67;101113.50;4944605;28;98604;-72
2023/04/30 02:07:36;;;;;;;;;;;;;;;12.73;45.61;101110.22;4955301;27;98727;-72
2023/04/30 02:10:03;;;;;;;;;;;;;;;12.71;45.78;101118.63;4939504;28;98168;-72
2023/04/30 02:12:30;;;;;;;;;;;;;;;12.70;45.81;101119.72;4953676;28;98129;-72
2023/04/30 02:14:56;;;;;;;;;;;;;;;12.68;45.76;101126.44;4924597;28;97975;-71
2023/04/30 02:17:23;;;;;;;;;;;;;;;12.65;45.77;101133.19;4943640;28;98061;-78
2023/04/30 02:19:49;;;;;;;;;;;;;;;12.64;45.76;101131.56;4920391;28;100449;-72
2023/04/30 02:24:45;;;;;;;;;;;;;;;12.60;45.97;101145.91;4958318;28;127517;-77
2023/04/30 02:27:11;;;;;;;;;;;;;;;12.57;45.68;101147.22;4927660;28;98167;-72
2023/04/30 02:29:38;;;;;;;;;;;;;;;12.56;45.84;101150.22;4956742;28;98099;-73
2023/04/30 02:32:04;;;;;;;;;;;;;;;12.55;45.92;101160.22;4944012;28;98841;-72
2023/04/30 02:34:30;;;;;;;;;;;;;;;12.52;45.71;101161.53;4955024;28;98464;-72
2023/04/30 02:36:58;;;;;;;;;;;;;;;12.51;45.83;101164.53;4943974;28;99295;-77
2023/04/30 02:39:25;;;;;;;;;;;;;;;12.47;45.74;101169.63;4942529;28;98478;-77
2023/04/30 02:41:54;;;;;;;;;;;;;;;12.47;45.66;101169.63;4956790;28;97909;-77
2023/04/30 02:44:22;;;;;;;;;;;;;;;12.45;45.76;101173.66;4926176;28;98911;-77
2023/04/30 02:46:48;;;;;;;;;;;;;;;12.43;45.64;101175.84;4927508;28;98457;-71
2023/04/30 02:49:16;;;;;;;;;;;;;;;12.41;45.76;101175.28;4954715;28;98267;-77
2023/04/30 02:51:46;;;;;;;;;;;;;;;12.39;45.69;101180.97;4925445;28;98050;-77
2023/04/30 02:54:13;;;;;;;;;;;;;;;12.37;45.89;101185.78;4921426;28;98128;-77
2023/04/30 02:56:40;;;;;;;;;;;;;;;12.36;45.79;101192.28;4936890;28;98043;-72
2023/04/30 02:59:08;;;;;;;;;;;;;;;12.33;45.75;101195.50;4953452;28;98113;-77
2023/04/30 03:01:36;;;;;;;;;;;;;;;12.32;45.97;101198.47;4942323;28;98067;-77
2023/04/30 03:04:05;;;;;;;;;;;;;;;12.31;45.69;101202.25;4953632;28;98331;-72
2023/04/30 03:06:32;;;;;;;;;;;;;;;12.26;45.74;101198.47;4929063;28;98033;-72
2023/04/30 03:08:59;;;;;;;;;;;;;;;12.25;45.64;101213.03;4942931;28;99675;-77
2023/04/30 03:11:26;;;;;;;;;;;;;;;12.22;45.86;101213.56;4929129;27;98174;-72
2023/04/30 03:13:54;;;;;;;;;;;;;;;12.22;45.75;101215.44;4925760;27;99934;-75
2023/04/30 03:16:21;;;;;;;;;;;;;;;12.19;45.81;101224.91;4928734;28;98713;-72
2023/04/30 03:18:48;;;;;;;;;;;;;;;12.16;45.71;101220.00;4926431;28;98248;-77
2023/04/30 03:21:16;;;;;;;;;;;;;;;12.16;45.75;101219.19;4955276;28;97964;-78
2023/04/30 03:23:42;;;;;;;;;;;;;;;12.12;45.58;101229.69;4930283;27;98092;-72
2023/04/30 03:26:09;;;;;;;;;;;;;;;12.11;45.76;101222.69;4941805;28;98131;-77
2023/04/30 03:28:35;;;;;;;;;;;;;;;12.09;45.72;101224.81;4938605;27;99143;-72
2023/04/30 03:31:05;;;;;;;;;;;;;;;12.08;45.72;101239.41;4928921;28;100297;-77
2023/04/30 03:33:32;;;;;;;;;;;;;;;12.06;45.65;101235.31;4929666;27;99482;-71
2023/04/30 03:35:58;;;;;;;;;;;;;;;12.03;45.83;101229.38;4928682;28;98263;-71
2023/04/30 03:38:24;;;;;;;;;;;;;;;12.02;45.68;101235.00;4943938;27;98083;-77
2023/04/30 03:40:51;;;;;;;;;;;;;;;12.01;45.73;101245.00;4923545;27;98231;-72
2023/04/30 03:43:17;;;;;;;;;;;;;;;12.00;45.86;101247.97;4925663;28;98244;-71
2023/04/30 03:45:44;;;;;;;;;;;;;;;11.98;45.64;101248.22;4930135;27;98054;-72
2023/04/30 03:48:12;;;;;;;;;;;;;;;11.97;45.77;101249.31;4928047;28;98210;-77
2023/04/30 03:50:38;;;;;;;;;;;;;;;11.97;45.83;101246.59;4931313;27;98098;-72
2023/04/30 03:53:05;;;;;;;;;;;;;;;11.97;45.61;101254.72;4944220;28;98232;-72
2023/04/30 03:55:31;;;;;;;;;;;;;;;11.97;45.91;101257.41;4940146;27;97993;-77
2023/04/30 03:57:59;;;;;;;;;;;;;;;11.96;45.81;101255.78;4928455;28;98186;-78
2023/04/30 04:00:26;;;;;;;;;;;;;;;11.97;45.72;101254.72;4930286;27;99541;-72
2023/04/30 04:02:52;;;;;;;;;;;;;;;11.98;45.74;101260.91;4926158;27;98266;-71
2023/04/30 04:05:20;;;;;;;;;;;;;;;11.99;45.74;101259.88;4953789;28;97976;-77
2023/04/30 04:07:46;;;;;;;;;;;;;;;12.00;45.54;101264.19;4931793;27;98391;-77
2023/04/30 04:10:12;;;;;;;;;;;;;;;12.00;45.62;101261.50;4928012;28;98215;-72
2023/04/30 04:12:39;;;;;;;;;;;;;;;12.01;45.88;101269.34;4929149;27;98184;-71
2023/04/30 04:15:07;;;;;;;;;;;;;;;12.01;45.63;101268.53;4928280;28;98036;-77
2023/04/30 04:17:35;;;;;;;;;;;;;;;12.04;45.60;101276.13;4928919;27;97936;-77
2023/04/30 04:20:01;;;;;;;;;;;;;;;12.06;45.59;101283.97;4929461;27;99314;-71
2023/04/30 04:22:27;;;;;;;;;;;;;;;12.07;45.53;101275.63;4941350;27;98072;-72
2023/04/30 04:24:54;;;;;;;;;;;;;;;12.09;45.58;101280.75;4928387;28;99806;-77
2023/04/30 04:27:20;;;;;;;;;;;;;;;12.11;45.45;101292.13;4926173;28;98451;-71
2023/04/30 04:29:50;;;;;;;;;;;;;;;12.10;45.38;101285.06;4930197;27;98570;-77
2023/04/30 04:32:18;;;;;;;;;;;;;;;12.13;45.67;101298.88;4945065;28;99588;-77
2023/04/30 04:34:46;;;;;;;;;;;;;;;12.15;45.38;101298.66;4930535;27;98325;-77
2023/04/30 04:37:12;;;;;;;;;;;;;;;12.16;45.65;101301.09;4940729;28;98007;-71
2023/04/30 04:39:38;;;;;;;;;;;;;;;12.17;45.48;101297.28;4926710;27;98314;-71
2023/04/30 04:42:05;;;;;;;;;;;;;;;12.20;45.57;101309.50;4940258;28;98204;-77
2023/04/30 04:44:31;;;;;;;;;;;;;;;12.23;45.51;101296.28;4923904;27;97973;-72
2023/04/30 04:46:58;;;;;;;;;;;;;;;12.26;45.33;101305.75;4945687;27;98140;-72
2023/04/30 04:49:24;;;;;;;;;;;;;;;12.28;45.42;101317.13;4943212;28;100741;-72
2023/04/30 04:51:50;;;;;;;;;;;;;;;12.32;45.37;101320.94;4925138;28;98082;-72
2023/04/30 04:54:17;;;;;;;;;;;;;;;12.36;45.44;101324.75;4918839;28;98496;-77
2023/04/30 04:56:43;;;;;;;;;;;;;;;12.39;45.49;101326.94;4927876;27;98499;-71
2023/04/30 04:59:10;;;;;;;;;;;;;;;12.40;45.22;101331.28;4932141;28;99188;-71
2023/04/30 05:01:37;;;;;;;;;;;;;;;12.46;45.36;101334.84;4921728;27;100223;-77
2023/04/30 05:04:04;;;;;;;;;;;;;;;12.55;45.10;101337.88;4925148;28;98268;-77
2023/04/30 05:06:30;;;;;;;;;;;;;;;12.60;45.31;101333.31;4923413;27;100800;-72
2023/04/30 05:08:57;;;;;;;;;;;;;;;12.68;45.23;101338.25;4937681;27;98244;-72
2023/04/30 05:11:23;;;;;;;;;;;;;;;12.75;44.90;101330.72;4923192;28;98414;-72
2023/04/30 05:13:49;;;;;;;;;;;;;;;12.84;45.08;101341.88;4926899;27;98284;-72
2023/04/30 05:16:16;;;;;;;;;;;;;;;13.02;45.05;101341.44;4940620;28;99577;-72
2023/04/30 05:18:42;;;;;;;;;;;;;;;13.16;44.79;101340.94;4953798;27;98110;-77
2023/04/30 05:21:09;;;;;;;;;;;;;;;13.20;44.85;101344.75;4923850;28;98509;-77
2023/04/30 05:23:36;;;;;;;;;;;;;;;13.28;44.88;101341.59;4924859;27;98188;-72
2023/04/30 05:26:04;;;;;;;;;;;;;;;13.39;44.82;101345.97;4939937;28;98158;-72
2023/04/30 05:28:30;;;;;;;;;;;;;;;13.43;44.90;101347.06;4923909;27;97980;-72
2023/04/30 05:30:57;;;;;;;;;;;;;;;13.47;44.82;101353.56;4925227;28;99884;-77
2023/04/30 05:33:25;;;;;;;;;;;;;;;13.50;44.71;101363.06;4923171;28;99294;-77
2023/04/30 05:35:51;;;;;;;;;;;;;;;13.53;44.85;101359.84;4930029;27;98240;-72
2023/04/30 05:38:17;;;;;;;;;;;;;;;13.59;44.62;101366.06;4938826;28;98361;-72
2023/04/30 05:40:44;;;;;;;;;;;;;;;13.66;44.98;101363.94;4939879;27;99144;-78
2023/04/30 05:43:11;;;;;;;;;;;;;;;13.73;44.78;101373.44;4927666;28;98029;-72
2023/04/30 05:45:37;;;;;;;;;;;;;;;13.83;44.73;101372.66;4945072;27;98214;-77
2023/04/30 05:48:04;;;;;;;;;;;;;;;13.92;44.63;101368.34;4928888;28;100467;-74
2023/04/30 05:50:30;;;;;;;;;;;;;;;14.02;44.67;101372.16;4941538;27;98416;-72
2023/04/30 05:52:57;;;;;;;;;;;;;;;14.10;44.76;101379.75;4940184;27;98031;-72
2023/04/30 05:55:24;;;;;;;;;;;;;;;14.20;44.51;101377.09;4939559;28;98033;-78
2023/04/30 05:57:50;;;;;;;;;;;;;;;14.30;44.38;101374.34;4939144;27;98420;-73
2023/04/30 06:00:17;;;;;;;;;;;;;;;14.39;44.61;101372.75;4959388;28;99928;-72
2023/04/30 06:02:43;;;;;;;;;;;;;;;14.56;44.42;101379.84;4920486;27;99448;-78
2023/04/30 06:05:10;;;;;;;;;;;;;;;14.89;43.80;101365.66;4927684;28;98589;-78
2023/04/30 06:07:38;;;;;;;;;;;;;;;15.16;43.90;101369.97;4923781;27;98206;-78
2023/04/30 06:10:05;;;;;;;;;;;;;;;15.37;43.61;101373.44;4925989;28;98631;-77
2023/04/30 06:12:34;;;;;;;;;;;;;;;15.49;43.54;101368.50;4926232;27;98338;-78
2023/04/30 06:15:00;;;;;;;;;;;;;;;15.77;43.55;101367.03;4936615;27;98610;-73
2023/04/30 06:17:27;;;;;;;;;;;;;;;16.00;43.57;101370.16;4943515;27;98347;-79
2023/04/30 06:19:54;;;;;;;;;;;;;;;16.25;43.42;101369.97;4938935;27;98008;-78
2023/04/30 06:22:21;;;;;;;;;;;;;;;16.40;43.38;101366.34;4926617;28;98083;-73
2023/04/30 06:24:47;;;;;;;;;;;;;;;16.49;43.25;101372.78;4945087;27;99710;-73
2023/04/30 06:27:14;;;;;;;;;;;;;;;16.60;43.63;101378.97;4943116;28;98175;-78
2023/04/30 06:29:41;;;;;;;;;;;;;;;16.68;43.63;101379.16;4942365;27;98254;-74
2023/04/30 06:32:08;;;;;;;;;;;;;;;16.81;43.49;101382.31;4929505;28;98163;-74
2023/04/30 06:34:37;;;;;;;;;;;;;;;16.85;43.49;101386.91;4925915;27;98060;-79
2023/04/30 06:37:04;;;;;;;;;;;;;;;16.95;43.55;101388.72;4928018;28;98421;-79
2023/04/30 06:39:35;;;;;;;;;;;;;;;17.13;43.43;101382.56;4926886;27;98157;-79
2023/04/30 06:42:03;;;;;;;;;;;;;;;17.29;43.33;101385.91;4920483;28;99090;-79
2023/04/30 06:44:29;;;;;;;;;;;;;;;17.51;43.10;101379.91;4927791;27;98389;-80
2023/04/30 06:46:59;;;;;;;;;;;;;;;17.72;43.17;101387.81;4924417;28;98320;-79
2023/04/30 06:49:28;;;;;;;;;;;;;;;17.84;43.05;101396.41;4944504;28;98363;-79
2023/04/30 06:51:57;;;;;;;;;;;;;;;17.87;43.24;101390.38;4927523;28;98124;-79
2023/04/30 06:54:26;;;;;;;;;;;;;;;18.00;42.96;101397.84;4927371;28;100453;-80
2023/04/30 06:56:53;;;;;;;;;;;;;;;18.14;43.01;101390.53;4926350;27;98229;-75
2023/04/30 06:59:19;;;;;;;;;;;;;;;18.26;43.12;101392.81;4939956;28;98389;-74
2023/04/30 07:01:49;;;;;;;;;;;;;;;18.45;42.93;101391.97;4918921;27;100583;-79
2023/04/30 07:04:16;;;;;;;;;;;;;;;18.73;42.52;101387.44;4939948;28;99549;-80
2023/04/30 07:06:44;;;;;;;;;;;;;;;18.81;42.77;101397.69;4942230;27;98221;-80
2023/04/30 07:09:14;;;;;;;;;;;;;;;18.90;42.92;101384.94;4923108;28;98477;-74
2023/04/30 07:11:41;;;;;;;;;;;;;;;19.54;42.06;101391.34;4937084;27;99558;-74
2023/04/30 07:14:07;;;;;;;;;;;;;;;19.87;41.72;101393.94;4925279;27;98256;-75
2023/04/30 07:16:35;;;;;;;;;;;;;;;20.17;41.90;101394.38;4924937;28;98316;-80
2023/04/30 07:19:02;;;;;;;;;;;;;;;20.55;41.76;101394.84;4938735;28;98354;-74
2023/04/30 07:21:32;;;;;;;;;;;;;;;20.68;41.79;101395.91;4928162;27;98363;-80
2023/04/30 07:24:02;;;;;;;;;;;;;;;20.83;41.98;101395.53;4943469;27;99519;-81
2023/04/30 07:26:29;;;;;;;;;;;;;;;20.93;42.04;101400.72;4953099;27;98180;-80
2023/04/30 07:28:55;;;;;;;;;;;;;;;21.16;41.86;101393.25;4926659;27;98241;-75
2023/04/30 07:31:21;;;;;;;;;;;;;;;21.07;42.16;101403.38;4941847;28;98181;-80
2023/04/30 07:33:49;;;;;;;;;;;;;;;20.94;42.46;101405.06;4937513;27;98659;-75
2023/04/30 07:36:19;;;;;;;;;;;;;;;20.83;42.61;101401.81;4942169;28;98165;-80
2023/04/30 07:38:47;;;;;;;;;;;;;;;20.76;42.76;101406.91;4938213;27;98177;-81
2023/04/30 07:41:14;;;;;;;;;;;;;;;20.70;42.77;101397.19;4926562;28;98153;-75
2023/04/30 07:43:41;;;;;;;;;;;;;;;21.80;41.31;101401.81;4925770;27;98310;-75
2023/04/30 07:46:07;;;;;;;;;;;;;;;23.37;39.91;101396.13;4925785;28;99832;-76
2023/04/30 07:48:34;;;;;;;;;;;;;;;23.95;39.86;101397.25;4920240;27;98370;-76
2023/04/30 07:51:03;;;;;;;;;;;;;;;24.43;39.79;101399.44;4927633;27;98182;-82
2023/04/30 07:53:30;;;;;;;;;;;;;;;25.53;38.99;101395.25;4952409;27;98414;-82
2023/04/30 07:55:58;;;;;;;;;;;;;;;26.66;38.35;101408.06;4927251;28;98209;-83
2023/04/30 07:58:27;;;;;;;;;;;;;;;27.83;37.61;101412.16;4941322;27;98711;-77
2023/04/30 08:00:54;;;;;;;;;;;;;;;28.40;37.66;101404.25;4943070;27;98144;-77
2023/04/30 08:03:21;;;;;;;;;;;;;;;29.59;37.00;101409.50;4924874;28;98346;-77
2023/04/30 08:05:47;;;;;;;;;;;;;;;30.62;36.74;101416.75;4922484;27;98165;-80
2023/04/30 08:08:14;;;;;;;;;;;;;;;31.10;36.87;101422.38;4925436;28;98126;-84
2023/04/30 08:10:41;;;;;;;;;;;;;;;29.69;39.05;101421.94;4921124;28;98056;-77
2023/04/30 08:13:08;;;;;;;;;;;;;;;30.23;38.30;101417.91;4946448;28;98415;-78
2023/04/30 08:15:36;;;;;;;;;;;;;;;30.94;37.96;101409.53;4937900;28;98137;-77
2023/04/30 08:18:04;;;;;;;;;;;;;;;32.69;36.51;101418.84;4921336;28;98173;-78
2023/04/30 08:20:31;;;;;;;;;;;;;;;33.98;35.83;101413.19;4932936;28;98433;-78
2023/04/30 08:22:59;;;;;;;;;;;;;;;34.98;35.45;101411.78;4046355;28;10000605;-83
2023/04/30 08:25:30;;;;;;;;;;;;;;;36.44;34.81;101415.84;4914217;28;98240;-84
2023/04/30 08:27:59;;;;;;;;;;;;;;;36.97;34.66;101410.66;4935819;28;98258;-83
2023/04/30 08:30:27;;;;;;;;;;;;;;;35.44;36.89;101407.81;4916930;28;98326;-76
2023/04/30 08:32:56;;;;;;;;;;;;;;;37.88;34.47;101400.16;4916750;28;98210;-84
2023/04/30 08:35:24;;;;;;;;;;;;;;;38.31;34.99;101400.78;4919789;28;98092;-84
2023/04/30 08:37:52;;;;;;;;;;;;;;;38.22;35.26;101400.59;4919794;28;98124;-78
2023/04/30 08:40:22;;;;;;;;;;;;;;;39.93;33.94;101405.91;4926193;28;99470;-74
2023/04/30 08:43:07;;;;;;;;;;;;;;;40.01;34.73;101401.66;4900556;28;98491;-84
2023/04/30 08:45:35;;;;;;;;;;;;;;;37.64;37.22;101391.75;4922440;28;97966;-83
2023/04/30 08:48:04;;;;;;;;;;;;;;;39.82;35.08;101399.81;4918222;28;98173;-74
2023/04/30 08:50:34;;;;;;;;;;;;;;;41.55;34.08;101399.44;4896801;28;98219;-74
2023/04/30 08:53:04;;;;;;;;;;;;;;;42.84;33.07;101389.53;4927871;28;101466;-73
2023/04/30 08:55:33;;;;;;;;;;;;;;;43.75;32.83;101396.47;4912258;28;98219;-83
2023/04/30 08:58:04;;;;;;;;;;;;;;;43.13;34.03;101383.44;4913487;28;98838;-82
2023/04/30 09:00:32;;;;;;;;;;;;;;;40.56;36.86;101382.66;4910698;28;98240;-82
2023/04/30 09:03:03;;;;;;;;;;;;;;;38.92;38.17;101370.44;4896864;28;97960;-82
2023/04/30 09:05:31;;;;;;;;;;;;;;;42.26;34.37;101385.44;4918037;28;98586;-83
2023/04/30 09:07:59;;;;;;;;;;;;;;;42.76;34.41;101374.09;4898820;28;100865;-82
2023/04/30 09:10:30;;;;;;;;;;;;;;;40.79;36.66;101378.63;4917747;28;99495;-81
2023/04/30 09:13:08;;;;;;;;;;;;;;;43.10;34.48;101375.88;4932533;28;98051;-83
2023/04/30 09:15:37;;;;;;;;;;;;;;;44.09;33.42;101379.03;4918213;28;98896;-74
2023/04/30 09:18:30;;;;;;;;;;;;;;;40.88;37.01;101369.47;4918925;28;98441;-82
2023/04/30 09:21:06;;;;;;;;;;;;;;;38.92;38.67;101370.44;4914967;28;98243;-76
2023/04/30 09:23:34;;;;;;;;;;;;;;;37.91;39.14;101362.72;4920444;28;98609;-75
2023/04/30 09:26:02;;;;;;;;;;;;;;;39.42;37.17;101366.28;4915356;28;98407;-82
2023/04/30 09:28:30;;;;;;;;;;;;;;;40.43;36.65;101379.00;4916034;28;98187;-75
2023/04/30 09:30:58;;;;;;;;;;;;;;;41.72;35.16;101378.19;4917929;28;99629;-74
2023/04/30 09:33:25;;;;;;;;;;;;;;;43.03;34.36;101374.09;4917174;28;100349;-82
2023/04/30 09:35:52;;;;;;;;;;;;;;;44.70;33.29;101367.56;4919730;28;97977;-74
2023/04/30 09:38:33;;;;;;;;;;;;;;;43.05;35.47;101360.25;4917879;28;98273;-74
2023/04/30 09:41:01;;;;;;;;;;;;;;;41.24;36.82;101346.41;4917849;28;98120;-82
2023/04/30 09:43:32;;;;;;;;;;;;;;;39.76;38.13;101354.44;4918543;28;98802;-76
2023/04/30 09:46:01;;;;;;;;;;;;;;;40.12;37.26;101356.19;4935487;28;98164;-77
2023/04/30 09:48:30;;;;;;;;;;;;;;;43.47;33.94;101362.50;4917527;28;101386;-82
2023/04/30 09:51:00;;;;;;;;;;;;;;;43.22;34.26;101352.25;4914938;28;98531;-75
2023/04/30 09:53:28;;;;;;;;;;;;;;;44.63;33.46;101352.91;4916793;28;98209;-74
2023/04/30 09:55:54;;;;;;;;;;;;;;;41.46;36.88;101335.13;4918595;28;98029;-75
2023/04/30 09:58:22;;;;;;;;;;;;;;;40.95;37.05;101336.09;4916858;28;98566;-81
2023/04/30 10:00:50;;;;;;;;;;;;;;;44.73;33.02;101352.38;4917722;28;98436;-73
2023/04/30 10:03:17;;;;;;;;;;;;;;;45.55;32.57;101344.41;4916508;28;98240;-81
2023/04/30 10:05:46;;;;;;;;;;;;;;;46.74;31.77;101350.66;4918495;28;98351;-74
2023/04/30 10:08:35;;;;;;;;;;;;;;;47.63;31.37;101341.47;4916495;28;99294;-75
2023/04/30 10:11:06;;;;;;;;;;;;;;;48.31;31.11;101329.28;4897777;28;99092;-78
2023/04/30 10:13:58;;;;;;;;;;;;;;;48.92;31.07;101320.19;4920185;28;97870;-82
2023/04/30 10:16:47;;;;;;;;;;;;;;;49.23;31.09;101318.44;4915027;28;98202;-75
2023/04/30 10:19:34;;;;;;;;;;;;;;;49.54;30.88;101316.66;4918065;28;98152;-75
2023/04/30 10:22:01;;;;;;;;;;;;;;;49.85;30.84;101307.78;4904579;28;100191;-77
2023/04/30 10:24:30;;;;;;;;;;;;;;;50.13;30.59;101298.34;4919032;28;97948;-81
2023/04/30 10:26:58;;;;;;;;;;;;;;;50.02;30.74;101304.09;4928275;28;98202;-86
2023/04/30 10:29:25;;;;;;;;;;;;;;;50.81;30.25;101296.75;4902869;28;98096;-81
2023/04/30 10:31:53;;;;;;;;;;;;;;;50.94;30.64;101289.66;4902409;28;98228;-76
2023/04/30 10:34:41;;;;;;;;;;;;;;;51.17;30.14;101288.16;4909687;28;98725;-79
2023/04/30 10:37:15;;;;;;;;;;;;;;;51.22;30.18;101286.59;4921114;28;98180;-78
2023/04/30 10:39:41;;;;;;;;;;;;;;;51.24;30.16;101283.97;4910587;28;98972;-81
2023/04/30 10:42:10;;;;;;;;;;;;;;;51.05;30.31;101272.34;4917562;28;98149;-81
2023/04/30 10:44:37;;;;;;;;;;;;;;;50.91;30.95;101282.91;4920936;28;99220;-80
2023/04/30 10:47:08;;;;;;;;;;;;;;;51.14;30.62;101268.41;4889994;28;100166;-80
2023/04/30 10:49:37;;;;;;;;;;;;;;;51.06;30.30;101271.06;4918450;28;98088;-80
2023/04/30 10:52:06;;;;;;;;;;;;;;;50.93;30.36;101268.03;4932447;28;98685;-80
2023/04/30 10:54:35;;;;;;;;;;;;;;;50.89;30.35;101261.78;4930135;28;98590;-81
2023/04/30 10:57:16;;;;;;;;;;;;;;;50.71;30.55;101266.06;4905376;28;98055;-81
2023/04/30 11:00:13;;;;;;;;;;;;;;;50.65;30.55;101273.91;4933500;28;98705;-77
2023/04/30 11:02:48;;;;;;;;;;;;;;;50.93;30.22;101274.53;4932057;28;98291;-77
2023/04/30 11:05:18;;;;;;;;;;;;;;;50.73;30.91;101269.94;4049609;28;10000812;-77
2023/04/30 11:07:53;;;;;;;;;;;;;;;50.50;30.69;101260.69;4932483;28;98259;-80
2023/04/30 11:10:22;;;;;;;;;;;;;;;50.35;30.46;101268.84;4970743;27;98691;-80
2023/04/30 11:12:50;;;;;;;;;;;;;;;50.22;30.72;101255.09;4944863;27;99557;-76
2023/04/30 11:15:20;;;;;;;;;;;;;;;49.84;30.81;101253.91;4055220;27;10000332;-78
2023/04/30 11:17:49;;;;;;;;;;;;;;;49.20;31.47;101250.81;4956910;27;98293;-78
2023/04/30 11:20:22;;;;;;;;;;;;;;;48.66;31.56;101251.75;4941426;27;98875;-79
2023/04/30 11:23:11;;;;;;;;;;;;;;;48.16;31.90;101245.84;4958848;27;97871;-80
2023/04/30 11:25:44;;;;;;;;;;;;;;;47.33;32.52;101241.13;4989611;27;98342;-81
2023/04/30 11:28:17;;;;;;;;;;;;;;;46.58;32.94;101240.09;4960746;27;98204;-81
2023/04/30 11:30:58;;;;;;;;;;;;;;;46.19;33.29;101244.00;4972099;27;97849;-81
2023/04/30 11:33:27;;;;;;;;;;;;;;;45.73;33.59;101232.44;4943694;27;98443;-80
2023/04/30 11:35:55;;;;;;;;;;;;;;;45.53;33.23;101238.84;4958056;27;98023;-81
2023/04/30 11:38:36;;;;;;;;;;;;;;;45.56;32.79;101242.78;4957993;27;97947;-80
2023/04/30 11:41:03;;;;;;;;;;;;;;;45.82;32.76;101240.09;4962306;27;98778;-80
2023/04/30 11:43:32;;;;;;;;;;;;;;;45.96;32.05;101242.88;4944295;27;98700;-80
2023/04/30 11:46:11;;;;;;;;;;;;;;;46.06;31.72;101237.81;4958997;27;98357;-80
2023/04/30 11:48:43;;;;;;;;;;;;;;;45.68;32.08;101244.53;4954261;27;98479;-80
2023/04/30 11:51:25;;;;;;;;;;;;;;;45.15;32.37;101242.59;4940590;27;98357;-81
2023/04/30 11:53:56;;;;;;;;;;;;;;;44.68;32.72;101235.75;4053897;27;10000880;-80
2023/04/30 11:56:23;;;;;;;;;;;;;;;44.24;32.94;101231.47;4942878;27;98510;-76
2023/04/30 11:58:51;;;;;;;;;;;;;;;43.76;33.24;101244.81;4941851;27;97981;-79
2023/04/30 12:01:22;;;;;;;;;;;;;;;43.36;33.25;101237.41;4958691;27;98306;-81
2023/04/30 12:03:51;;;;;;;;;;;;;;;43.04;33.53;101238.88;4943237;27;98057;-76
2023/04/30 12:06:29;;;;;;;;;;;;;;;42.73;33.76;101239.06;4943649;27;98231;-82
2023/04/30 12:08:57;;;;;;;;;;;;;;;42.37;33.77;101232.88;4942492;27;98181;-76
2023/04/30 12:11:27;;;;;;;;;;;;;;;42.13;34.08;101229.03;4941793;27;98746;-75
2023/04/30 12:13:56;;;;;;;;;;;;;;;41.86;33.94;101224.88;4957424;27;99806;-75
2023/04/30 12:16:40;;;;;;;;;;;;;;;41.60;34.24;101229.16;4955681;27;98577;-80
2023/04/30 12:19:08;;;;;;;;;;;;;;;41.33;34.30;101226.94;4944391;27;98449;-76
2023/04/30 12:21:35;;;;;;;;;;;;;;;41.14;33.93;101226.06;4940083;27;98074;-77
2023/04/30 12:24:03;;;;;;;;;;;;;;;40.93;34.14;101234.06;4942943;27;98355;-81
2023/04/30 12:26:39;;;;;;;;;;;;;;;40.69;33.92;101224.47;4935994;27;97849;-81
2023/04/30 12:29:10;;;;;;;;;;;;;;;40.38;34.09;101218.66;4958221;27;98759;-79
2023/04/30 12:31:40;;;;;;;;;;;;;;;40.10;34.23;101226.03;4937069;27;98375;-81
2023/04/30 12:34:13;;;;;;;;;;;;;;;39.83;34.39;101218.06;4956958;27;98040;-82
2023/04/30 12:36:41;;;;;;;;;;;;;;;39.57;34.59;101214.41;4957788;27;98246;-77
2023/04/30 12:39:10;;;;;;;;;;;;;;;39.25;34.34;101219.00;4952321;27;98495;-82
2023/04/30 12:41:47;;;;;;;;;;;;;;;38.87;34.86;101218.84;4952365;27;98267;-82
2023/04/30 12:44:18;;;;;;;;;;;;;;;38.49;34.82;101220.25;4936789;27;98139;-82
2023/04/30 12:46:47;;;;;;;;;;;;;;;38.17;34.65;101218.25;4954341;27;98434;-77
2023/04/30 12:49:24;;;;;;;;;;;;;;;37.93;35.01;101219.66;4939635;27;98013;-87